Time;durP1;ratioP1;P1;durP2;ratioP2;P2;SDS_P1;SDS_P2;PMS_P1;PMS_P2;Temp;Humidity;BMP_temperature;BMP_pressure;BME280_temperature;BME280_humidity;BME280_pressure;Samples;Min_cycle;Max_cycle;Signal;HPM_P1;HPM_P2
2023/08/19 00:00:17;;;;;;;;;;;22.00;81.10;;;;;;4987873;28;19926;-69
2023/08/19 00:02:44;;;;;;;;;;;22.00;81.10;;;;;;4987547;28;19934;-72
2023/08/19 00:05:12;;;;;;;;;;;22.00;81.00;;;;;;4989146;28;19926;-72
2023/08/19 00:07:40;;;;;;;;;;;21.90;81.10;;;;;;4986594;28;19933;-72
2023/08/19 00:10:08;;;;;;;;;;;21.90;81.20;;;;;;4989203;28;19926;-73
2023/08/19 00:12:37;;;;;;;;;;;21.90;81.00;;;;;;4986341;28;19969;-71
2023/08/19 00:15:04;;;;;;;;;;;21.90;81.00;;;;;;4987347;28;19969;-71
2023/08/19 00:17:31;;;;;;;;;;;21.80;81.10;;;;;;4987849;28;20013;-72
2023/08/19 00:20:00;;;;;;;;;;;21.80;81.10;;;;;;4987208;28;19934;-70
2023/08/19 00:22:28;;;;;;;;;;;21.80;81.30;;;;;;4988106;28;20017;-72
2023/08/19 00:24:55;;;;;;;;;;;21.80;81.20;;;;;;4988764;28;19973;-73
2023/08/19 00:27:22;;;;;;;;;;;21.80;81.20;;;;;;4987839;28;19926;-71
2023/08/19 00:29:49;;;;;;;;;;;21.70;81.10;;;;;;4987301;28;20029;-73
2023/08/19 00:32:16;;;;;;;;;;;21.70;81.00;;;;;;4992991;28;19941;-72
2023/08/19 00:34:44;;;;;;;;;;;21.70;81.10;;;;;;4990328;28;20016;-71
2023/08/19 00:37:10;;;;;;;;;;;21.70;81.20;;;;;;5007728;28;19996;-72
2023/08/19 00:39:39;;;;;;;;;;;21.60;81.30;;;;;;4989196;28;19937;-72
2023/08/19 00:42:07;;;;;;;;;;;21.60;81.10;;;;;;4991034;28;19953;-72
2023/08/19 00:44:34;;;;;;;;;;;21.60;80.90;;;;;;4991893;28;19954;-72
2023/08/19 00:47:02;;;;;;;;;;;21.60;81.00;;;;;;4992201;28;19941;-71
2023/08/19 00:49:29;;;;;;;;;;;21.60;81.10;;;;;;4991225;28;19934;-72
2023/08/19 00:51:57;;;;;;;;;;;21.60;81.20;;;;;;4990412;28;19934;-72
2023/08/19 00:54:24;;;;;;;;;;;21.60;81.20;;;;;;4989637;28;19940;-71
2023/08/19 00:56:52;;;;;;;;;;;21.60;81.20;;;;;;4990613;28;19963;-72
2023/08/19 00:59:19;;;;;;;;;;;21.60;81.00;;;;;;5005996;28;19934;-72
2023/08/19 01:01:46;;;;;;;;;;;21.60;81.10;;;;;;4990334;28;19930;-72
2023/08/19 01:04:13;;;;;;;;;;;21.60;81.20;;;;;;4985516;28;19925;-72
2023/08/19 01:06:42;;;;;;;;;;;21.50;81.40;;;;;;4990146;28;19926;-72
2023/08/19 01:09:14;;;;;;;;;;;21.50;81.30;;;;;;4973930;28;19926;-70
2023/08/19 01:11:50;;;;;;;;;;;21.50;81.40;;;;;;4974907;28;19933;-69
2023/08/19 01:14:27;;;;;;;;;;;21.40;81.50;;;;;;4991207;28;19936;-70
2023/08/19 01:16:54;;;;;;;;;;;21.40;81.40;;;;;;4990737;28;19926;-69
2023/08/19 01:19:24;;;;;;;;;;;21.40;81.50;;;;;;4973008;28;19926;-70
2023/08/19 01:21:53;;;;;;;;;;;21.40;81.30;;;;;;4990878;28;19926;-70
2023/08/19 01:24:21;;;;;;;;;;;21.40;81.50;;;;;;5005372;28;19932;-69
2023/08/19 01:26:50;;;;;;;;;;;21.40;81.50;;;;;;4991266;28;19930;-71
2023/08/19 01:29:17;;;;;;;;;;;21.40;81.50;;;;;;4991159;28;19953;-69
2023/08/19 01:31:43;;;;;;;;;;;21.40;81.50;;;;;;4991443;28;19926;-69
2023/08/19 01:34:10;;;;;;;;;;;21.40;81.40;;;;;;4990583;28;20066;-70
2023/08/19 01:36:42;;;;;;;;;;;21.30;81.50;;;;;;4989301;28;20358;-70
2023/08/19 01:39:10;;;;;;;;;;;21.30;81.50;;;;;;4990411;28;19933;-70
2023/08/19 01:41:37;;;;;;;;;;;21.30;81.40;;;;;;4990176;28;20500;-71
2023/08/19 01:44:06;;;;;;;;;;;21.30;81.50;;;;;;4991034;28;20107;-70
2023/08/19 01:46:33;;;;;;;;;;;21.30;81.60;;;;;;4989588;28;19930;-70
2023/08/19 01:49:00;;;;;;;;;;;21.30;81.70;;;;;;5004812;28;19929;-68
2023/08/19 01:51:30;;;;;;;;;;;21.30;81.80;;;;;;4988984;28;19976;-70
2023/08/19 01:53:57;;;;;;;;;;;21.30;81.80;;;;;;4990608;28;19926;-70
2023/08/19 01:56:24;;;;;;;;;;;21.20;82.00;;;;;;4989638;28;19946;-71
2023/08/19 01:58:51;;;;;;;;;;;21.20;82.20;;;;;;5005200;28;19926;-70
2023/08/19 02:01:19;;;;;;;;;;;21.20;82.30;;;;;;4988732;28;19942;-69
2023/08/19 02:03:46;;;;;;;;;;;21.20;82.20;;;;;;4988170;28;19930;-70
2023/08/19 02:06:13;;;;;;;;;;;21.10;82.40;;;;;;4989133;28;19934;-70
2023/08/19 02:08:40;;;;;;;;;;;21.10;82.30;;;;;;5005309;28;19929;-70
2023/08/19 02:11:07;;;;;;;;;;;21.10;82.20;;;;;;5003728;28;19931;-71
2023/08/19 02:13:34;;;;;;;;;;;21.10;82.10;;;;;;4989731;28;20296;-70
2023/08/19 02:16:01;;;;;;;;;;;21.10;82.10;;;;;;4989088;28;19937;-69
2023/08/19 02:18:30;;;;;;;;;;;21.10;81.80;;;;;;4989102;28;19937;-69
2023/08/19 02:20:57;;;;;;;;;;;21.10;81.60;;;;;;4990390;28;19926;-66
2023/08/19 02:23:24;;;;;;;;;;;21.10;81.70;;;;;;4989291;28;20020;-66
2023/08/19 02:25:52;;;;;;;;;;;21.00;82.00;;;;;;4989296;28;19934;-66
2023/08/19 02:28:18;;;;;;;;;;;21.00;82.30;;;;;;4988961;28;20020;-66
2023/08/19 02:30:46;;;;;;;;;;;20.90;82.30;;;;;;4988234;28;19992;-67
2023/08/19 02:33:12;;;;;;;;;;;20.90;82.50;;;;;;4989055;28;20006;-67
2023/08/19 02:35:41;;;;;;;;;;;20.90;82.40;;;;;;4989825;28;19933;-67
2023/08/19 02:38:08;;;;;;;;;;;20.90;82.30;;;;;;4987985;28;19925;-65
2023/08/19 02:40:35;;;;;;;;;;;20.90;82.40;;;;;;4987820;28;19947;-67
2023/08/19 02:43:02;;;;;;;;;;;20.90;82.50;;;;;;4988634;28;19933;-66
2023/08/19 02:45:29;;;;;;;;;;;20.80;82.60;;;;;;4988879;28;19949;-67
2023/08/19 02:47:56;;;;;;;;;;;20.90;82.50;;;;;;4989929;28;20308;-66
2023/08/19 02:50:23;;;;;;;;;;;20.90;82.40;;;;;;4988542;28;20513;-67
2023/08/19 02:52:51;;;;;;;;;;;20.90;82.50;;;;;;4989162;28;19926;-68
2023/08/19 02:55:18;;;;;;;;;;;20.90;82.40;;;;;;5001614;28;20008;-66
2023/08/19 02:57:45;;;;;;;;;;;20.80;82.50;;;;;;4987560;28;19930;-67
2023/08/19 03:00:14;;;;;;;;;;;20.70;82.50;;;;;;4989233;28;19930;-67
2023/08/19 03:02:42;;;;;;;;;;;20.70;82.50;;;;;;4989094;28;19926;-67
2023/08/19 03:05:09;;;;;;;;;;;20.70;82.70;;;;;;4987608;28;19925;-66
2023/08/19 03:07:36;;;;;;;;;;;20.80;82.80;;;;;;4988075;28;19988;-67
2023/08/19 03:10:05;;;;;;;;;;;20.80;82.60;;;;;;5003392;28;19926;-68
2023/08/19 03:12:32;;;;;;;;;;;20.80;82.60;;;;;;4987319;28;19938;-67
2023/08/19 03:14:59;;;;;;;;;;;20.80;82.90;;;;;;4989109;28;19932;-66
2023/08/19 03:17:26;;;;;;;;;;;20.70;83.10;;;;;;4989254;28;19940;-67
2023/08/19 03:19:53;;;;;;;;;;;20.80;82.80;;;;;;4989629;28;20408;-66
2023/08/19 03:22:20;;;;;;;;;;;20.80;83.00;;;;;;4986633;28;21081;-67
2023/08/19 03:24:47;;;;;;;;;;;20.80;82.90;;;;;;4988328;28;19936;-66
2023/08/19 03:27:15;;;;;;;;;;;20.80;82.90;;;;;;4988707;28;19930;-66
2023/08/19 03:29:42;;;;;;;;;;;20.80;82.90;;;;;;5001782;28;19925;-78
2023/08/19 03:32:09;;;;;;;;;;;20.70;83.20;;;;;;4987448;28;19973;-76
2023/08/19 03:34:36;;;;;;;;;;;20.80;83.00;;;;;;4987966;28;19984;-76
2023/08/19 03:37:03;;;;;;;;;;;20.80;82.90;;;;;;4986856;28;20292;-74
2023/08/19 03:39:30;;;;;;;;;;;20.70;83.00;;;;;;4987819;28;19926;-78
2023/08/19 03:41:57;;;;;;;;;;;20.70;83.00;;;;;;4987732;28;19934;-76
2023/08/19 03:44:26;;;;;;;;;;;20.70;82.90;;;;;;4988323;28;19934;-76
2023/08/19 03:46:53;;;;;;;;;;;20.70;83.00;;;;;;4986117;28;19929;-79
2023/08/19 03:49:21;;;;;;;;;;;20.60;83.20;;;;;;4987479;28;19926;-77
2023/08/19 03:51:48;;;;;;;;;;;20.60;83.20;;;;;;4987885;28;19930;-77
2023/08/19 03:54:15;;;;;;;;;;;20.60;83.30;;;;;;4988725;28;19933;-77
2023/08/19 03:56:42;;;;;;;;;;;20.60;83.60;;;;;;4988522;28;19942;-78
2023/08/19 03:59:09;;;;;;;;;;;20.50;83.70;;;;;;4987427;28;20016;-76
2023/08/19 04:01:39;;;;;;;;;;;20.50;83.60;;;;;;4986190;28;19926;-76
2023/08/19 04:04:07;;;;;;;;;;;20.60;83.50;;;;;;4987954;28;19995;-77
2023/08/19 04:06:34;;;;;;;;;;;20.60;83.50;;;;;;4990145;28;19951;-78
2023/08/19 04:09:01;;;;;;;;;;;20.60;83.40;;;;;;4993211;28;19936;-78
2023/08/19 04:11:28;;;;;;;;;;;20.50;83.60;;;;;;4990791;28;19930;-77
2023/08/19 04:13:55;;;;;;;;;;;20.50;83.60;;;;;;4977848;28;19973;-76
2023/08/19 04:16:23;;;;;;;;;;;20.50;83.70;;;;;;4971632;28;19938;-77
2023/08/19 04:18:52;;;;;;;;;;;20.50;83.70;;;;;;4972948;28;19934;-78
2023/08/19 04:21:19;;;;;;;;;;;20.50;83.80;;;;;;4978372;28;20029;-78
2023/08/19 04:23:46;;;;;;;;;;;20.40;83.70;;;;;;4974736;28;19926;-77
2023/08/19 04:26:13;;;;;;;;;;;20.50;83.50;;;;;;4980832;28;19930;-76
2023/08/19 04:28:40;;;;;;;;;;;20.50;83.70;;;;;;4979717;28;19930;-77
2023/08/19 04:31:08;;;;;;;;;;;20.40;83.50;;;;;;4979720;28;20455;-77
2023/08/19 04:33:44;;;;;;;;;;;20.40;83.50;;;;;;4989360;28;19988;-76
2023/08/19 04:36:13;;;;;;;;;;;20.40;83.50;;;;;;4990777;28;19929;-78
2023/08/19 04:38:39;;;;;;;;;;;20.30;83.50;;;;;;5006159;28;19938;-78
2023/08/19 04:41:08;;;;;;;;;;;20.40;83.50;;;;;;4990778;28;20377;-70
2023/08/19 04:43:41;;;;;;;;;;;20.40;83.60;;;;;;4976782;28;19937;-69
2023/08/19 04:46:10;;;;;;;;;;;20.40;83.60;;;;;;4966652;28;19925;-69
2023/08/19 04:48:37;;;;;;;;;;;20.30;83.70;;;;;;4984907;28;19930;-68
2023/08/19 04:51:04;;;;;;;;;;;20.30;83.90;;;;;;4990925;28;20467;-70
2023/08/19 04:53:33;;;;;;;;;;;20.30;84.00;;;;;;5004741;28;19926;-69
2023/08/19 04:56:02;;;;;;;;;;;20.30;83.90;;;;;;4990036;28;20404;-69
2023/08/19 04:58:28;;;;;;;;;;;20.30;84.10;;;;;;4989350;28;19926;-68
2023/08/19 05:00:55;;;;;;;;;;;20.30;84.30;;;;;;4990153;28;19925;-70
2023/08/19 05:03:24;;;;;;;;;;;20.30;84.30;;;;;;4989082;28;19992;-70
2023/08/19 05:05:51;;;;;;;;;;;20.40;84.20;;;;;;4989621;28;19930;-70
2023/08/19 05:08:22;;;;;;;;;;;20.40;84.10;;;;;;4988252;28;19985;-69
2023/08/19 05:10:51;;;;;;;;;;;20.40;84.20;;;;;;4989880;28;19926;-69
2023/08/19 05:13:18;;;;;;;;;;;20.40;84.20;;;;;;4989928;28;19926;-69
2023/08/19 05:15:45;;;;;;;;;;;20.40;84.30;;;;;;4989401;28;19933;-69
2023/08/19 05:18:13;;;;;;;;;;;20.40;84.50;;;;;;4991005;28;19976;-69
2023/08/19 05:20:41;;;;;;;;;;;20.40;84.60;;;;;;4969538;28;19932;-69
2023/08/19 05:23:08;;;;;;;;;;;20.30;84.70;;;;;;4971937;28;19941;-69
2023/08/19 05:25:35;;;;;;;;;;;20.30;84.90;;;;;;4992783;28;19957;-69
2023/08/19 05:28:03;;;;;;;;;;;20.40;84.80;;;;;;4989670;28;20558;-69
2023/08/19 05:30:30;;;;;;;;;;;20.40;84.80;;;;;;4990307;28;19926;-68
2023/08/19 05:32:58;;;;;;;;;;;20.50;84.70;;;;;;4990582;28;19929;-69
2023/08/19 05:35:25;;;;;;;;;;;20.50;84.40;;;;;;4989827;28;19934;-69
2023/08/19 05:37:52;;;;;;;;;;;20.60;84.50;;;;;;4989990;28;20416;-69
2023/08/19 05:40:19;;;;;;;;;;;20.70;84.10;;;;;;4989276;28;19926;-69
2023/08/19 05:42:46;;;;;;;;;;;20.80;84.10;;;;;;4990554;28;19936;-68
2023/08/19 05:45:15;;;;;;;;;;;20.80;84.00;;;;;;4989344;28;19980;-69
2023/08/19 05:47:42;;;;;;;;;;;20.80;83.90;;;;;;4958370;28;19937;-69
2023/08/19 05:50:10;;;;;;;;;;;20.80;84.00;;;;;;4966816;28;19938;-75
2023/08/19 05:52:36;;;;;;;;;;;20.90;83.90;;;;;;4969038;28;19980;-76
2023/08/19 05:55:04;;;;;;;;;;;20.90;83.70;;;;;;4990163;28;20028;-76
2023/08/19 05:57:31;;;;;;;;;;;20.90;84.00;;;;;;4990054;28;19930;-75
2023/08/19 05:59:58;;;;;;;;;;;21.00;83.80;;;;;;4990872;28;19930;-75
2023/08/19 06:02:28;;;;;;;;;;;21.10;83.30;;;;;;4989778;28;20381;-74
2023/08/19 06:05:02;;;;;;;;;;;21.10;83.30;;;;;;4989114;28;19926;-75
2023/08/19 06:07:37;;;;;;;;;;;21.10;83.90;;;;;;4989815;28;20004;-75
2023/08/19 06:10:10;;;;;;;;;;;21.20;83.70;;;;;;4987867;28;20157;-77
2023/08/19 06:12:46;;;;;;;;;;;21.20;83.90;;;;;;4989697;28;19940;-74
2023/08/19 06:15:21;;;;;;;;;;;21.30;83.60;;;;;;4990780;28;19930;-74
2023/08/19 06:18:01;;;;;;;;;;;21.40;83.50;;;;;;4990055;28;19938;-74
2023/08/19 06:20:37;;;;;;;;;;;21.50;83.50;;;;;;4990928;28;19985;-73
2023/08/19 06:23:20;;;;;;;;;;;21.60;83.70;;;;;;4993391;28;19936;-74
2023/08/19 06:25:56;;;;;;;;;;;21.60;83.50;;;;;;4992084;28;19967;-73
2023/08/19 06:28:31;;;;;;;;;;;21.60;83.50;;;;;;4992084;28;19937;-74
2023/08/19 06:31:06;;;;;;;;;;;21.70;83.50;;;;;;4993192;28;20419;-74
2023/08/19 06:33:47;;;;;;;;;;;21.80;83.10;;;;;;4989962;28;19968;-75
2023/08/19 06:36:29;;;;;;;;;;;21.90;83.00;;;;;;4988168;28;20735;-74
2023/08/19 06:39:08;;;;;;;;;;;22.00;82.90;;;;;;4989577;28;19932;-75
2023/08/19 06:41:45;;;;;;;;;;;22.00;83.00;;;;;;4989160;28;19977;-74
2023/08/19 06:44:28;;;;;;;;;;;22.10;82.90;;;;;;4971539;28;19926;-75
2023/08/19 06:47:09;;;;;;;;;;;22.30;82.10;;;;;;4982955;28;19930;-73
2023/08/19 06:49:50;;;;;;;;;;;22.50;81.60;;;;;;4988290;28;19948;-75
2023/08/19 06:52:20;;;;;;;;;;;22.60;81.20;;;;;;4988052;28;19929;-74
2023/08/19 06:54:47;;;;;;;;;;;22.80;80.90;;;;;;4989109;28;20033;-72
2023/08/19 06:57:17;;;;;;;;;;;23.00;80.30;;;;;;4989337;28;19929;-74
2023/08/19 06:59:48;;;;;;;;;;;23.30;79.90;;;;;;4988324;28;19926;-72
2023/08/19 07:02:16;;;;;;;;;;;23.40;79.60;;;;;;4989126;28;20346;-72
2023/08/19 07:04:45;;;;;;;;;;;23.50;79.10;;;;;;4988052;28;20353;-71
2023/08/19 07:07:12;;;;;;;;;;;23.60;79.00;;;;;;4988540;28;20404;-70
2023/08/19 07:09:40;;;;;;;;;;;23.60;79.10;;;;;;4988517;28;19929;-72
2023/08/19 07:12:07;;;;;;;;;;;23.80;78.90;;;;;;4989348;28;19936;-72
2023/08/19 07:14:35;;;;;;;;;;;23.80;78.60;;;;;;4988673;28;19930;-72
2023/08/19 07:17:03;;;;;;;;;;;23.80;78.40;;;;;;4988336;28;19926;-71
2023/08/19 07:19:32;;;;;;;;;;;23.80;78.40;;;;;;4987923;28;19934;-71
2023/08/19 07:22:00;;;;;;;;;;;23.80;78.20;;;;;;4988743;28;19941;-71
2023/08/19 07:24:28;;;;;;;;;;;23.80;78.20;;;;;;4988479;28;19937;-71
2023/08/19 07:26:55;;;;;;;;;;;23.80;78.00;;;;;;4988679;28;20384;-71
2023/08/19 07:29:22;;;;;;;;;;;23.80;77.90;;;;;;4988139;28;19926;-73
2023/08/19 07:31:51;;;;;;;;;;;23.80;78.10;;;;;;4987737;28;19932;-72
2023/08/19 07:34:19;;;;;;;;;;;23.80;78.20;;;;;;4988078;28;19930;-71
2023/08/19 07:36:46;;;;;;;;;;;23.90;77.60;;;;;;4987991;28;19934;-71
2023/08/19 07:39:14;;;;;;;;;;;23.90;77.70;;;;;;4988256;28;20498;-72
2023/08/19 07:41:41;;;;;;;;;;;23.90;77.50;;;;;;4991446;28;20012;-71
2023/08/19 07:44:08;;;;;;;;;;;24.00;77.40;;;;;;4992029;28;19961;-71
2023/08/19 07:46:35;;;;;;;;;;;24.10;77.20;;;;;;4991196;28;19926;-71
2023/08/19 07:49:02;;;;;;;;;;;24.20;77.00;;;;;;4992921;28;19926;-71
2023/08/19 07:51:29;;;;;;;;;;;24.40;76.60;;;;;;4992250;28;19930;-71
2023/08/19 07:53:56;;;;;;;;;;;24.50;76.60;;;;;;4991892;28;19930;-72
2023/08/19 07:56:24;;;;;;;;;;;24.60;76.40;;;;;;4991616;28;20285;-70
2023/08/19 07:58:51;;;;;;;;;;;24.90;76.20;;;;;;4991784;28;19929;-71
2023/08/19 08:01:19;;;;;;;;;;;25.20;75.40;;;;;;4991519;28;19952;-71
2023/08/19 08:03:47;;;;;;;;;;;25.50;73.90;;;;;;4993011;28;20372;-71
2023/08/19 08:06:14;;;;;;;;;;;25.80;73.40;;;;;;4992565;28;19934;-71
2023/08/19 08:08:41;;;;;;;;;;;25.90;72.90;;;;;;4971890;28;19937;-70
2023/08/19 08:11:08;;;;;;;;;;;26.00;73.10;;;;;;4986844;28;19930;-71
2023/08/19 08:13:36;;;;;;;;;;;25.90;72.80;;;;;;4991206;28;20019;-70
2023/08/19 08:16:03;;;;;;;;;;;25.90;73.20;;;;;;4991400;28;19926;-70
2023/08/19 08:18:30;;;;;;;;;;;25.80;73.40;;;;;;4992866;28;19930;-73
2023/08/19 08:20:57;;;;;;;;;;;25.60;74.00;;;;;;4992061;28;19934;-71
2023/08/19 08:23:24;;;;;;;;;;;25.70;74.10;;;;;;4991529;28;20009;-71
2023/08/19 08:25:51;;;;;;;;;;;25.80;73.70;;;;;;4990493;28;20381;-70
2023/08/19 08:28:18;;;;;;;;;;;25.80;73.60;;;;;;4991138;28;19926;-70
2023/08/19 08:30:47;;;;;;;;;;;25.90;73.10;;;;;;4991761;28;20020;-70
2023/08/19 08:33:14;;;;;;;;;;;26.00;73.60;;;;;;4991531;28;19929;-70
2023/08/19 08:35:41;;;;;;;;;;;26.10;73.10;;;;;;4990818;28;19934;-71
2023/08/19 08:38:08;;;;;;;;;;;26.30;72.80;;;;;;4991507;28;19926;-71
2023/08/19 08:40:35;;;;;;;;;;;26.40;72.60;;;;;;4990805;28;20016;-70
2023/08/19 08:43:03;;;;;;;;;;;26.60;72.60;;;;;;4992004;28;19926;-71
2023/08/19 08:45:31;;;;;;;;;;;26.60;72.10;;;;;;4992011;28;20041;-71
2023/08/19 08:48:00;;;;;;;;;;;26.60;72.00;;;;;;4990834;28;20029;-72
2023/08/19 08:50:27;;;;;;;;;;;26.80;71.40;;;;;;4991389;28;19934;-69
2023/08/19 08:52:54;;;;;;;;;;;27.00;71.20;;;;;;4989065;28;19930;-71
2023/08/19 08:55:21;;;;;;;;;;;27.20;70.90;;;;;;4990086;28;19926;-71
2023/08/19 08:57:48;;;;;;;;;;;27.40;70.60;;;;;;4991473;28;19934;-71
2023/08/19 09:00:16;;;;;;;;;;;27.50;70.50;;;;;;4989504;28;20332;-72
2023/08/19 09:02:44;;;;;;;;;;;27.70;70.10;;;;;;4990916;28;19996;-72
2023/08/19 09:05:13;;;;;;;;;;;27.80;69.80;;;;;;4990148;28;19952;-71
2023/08/19 09:07:41;;;;;;;;;;;28.00;69.40;;;;;;4990586;28;21899;-70
2023/08/19 09:10:10;;;;;;;;;;;28.10;69.20;;;;;;4988260;28;19936;-69
2023/08/19 09:12:37;;;;;;;;;;;28.20;68.70;;;;;;4990453;28;19969;-70
2023/08/19 09:15:05;;;;;;;;;;;28.30;68.40;;;;;;4990637;28;20024;-70
2023/08/19 09:17:33;;;;;;;;;;;28.40;68.10;;;;;;4989839;28;19932;-71
2023/08/19 09:20:00;;;;;;;;;;;28.50;68.00;;;;;;4990380;28;20005;-69
2023/08/19 09:22:29;;;;;;;;;;;28.60;67.60;;;;;;4990929;28;20052;-69
2023/08/19 09:24:57;;;;;;;;;;;28.80;66.70;;;;;;4991334;28;20429;-70
2023/08/19 09:27:27;;;;;;;;;;;28.80;66.90;;;;;;4989843;28;19926;-70
2023/08/19 09:29:54;;;;;;;;;;;29.00;67.20;;;;;;4990089;28;19941;-69
2023/08/19 09:32:28;;;;;;;;;;;29.10;66.60;;;;;;4989968;28;19926;-68
2023/08/19 09:35:03;;;;;;;;;;;29.20;65.80;;;;;;4989521;28;21063;-68
2023/08/19 09:37:31;;;;;;;;;;;29.30;65.70;;;;;;4990369;28;19926;-68
2023/08/19 09:39:59;;;;;;;;;;;29.40;65.20;;;;;;4991182;28;20072;-68
2023/08/19 09:42:27;;;;;;;;;;;29.50;65.20;;;;;;4989532;28;20017;-68
2023/08/19 09:44:56;;;;;;;;;;;29.70;64.90;;;;;;4990165;28;19929;-68
2023/08/19 09:47:23;;;;;;;;;;;29.90;64.30;;;;;;4990135;28;20270;-69
2023/08/19 09:49:50;;;;;;;;;;;30.00;64.50;;;;;;4989131;28;19965;-69
2023/08/19 09:52:17;;;;;;;;;;;30.00;64.00;;;;;;4988820;28;19929;-67
2023/08/19 09:54:52;;;;;;;;;;;30.00;64.20;;;;;;4989806;28;19980;-68
2023/08/19 09:57:19;;;;;;;;;;;29.90;64.00;;;;;;4989752;28;20052;-68
2023/08/19 09:59:46;;;;;;;;;;;29.90;63.70;;;;;;4989311;28;19965;-68
2023/08/19 10:02:14;;;;;;;;;;;29.80;64.50;;;;;;4989620;28;19926;-67
2023/08/19 10:04:41;;;;;;;;;;;29.90;64.10;;;;;;4988768;28;19926;-68
2023/08/19 10:07:09;;;;;;;;;;;29.90;64.50;;;;;;4990313;28;19961;-68
2023/08/19 10:09:39;;;;;;;;;;;30.00;64.70;;;;;;4989347;28;20016;-69
2023/08/19 10:12:09;;;;;;;;;;;30.10;64.30;;;;;;5004665;28;19929;-69
2023/08/19 10:14:36;;;;;;;;;;;30.10;64.50;;;;;;4988513;28;19925;-68
2023/08/19 10:17:05;;;;;;;;;;;30.20;64.20;;;;;;4989813;28;19938;-68
2023/08/19 10:19:35;;;;;;;;;;;30.20;64.90;;;;;;4989956;28;19930;-69
2023/08/19 10:22:03;;;;;;;;;;;30.30;63.60;;;;;;4990231;28;20024;-69
2023/08/19 10:24:30;;;;;;;;;;;30.40;63.80;;;;;;4988253;28;19991;-69
2023/08/19 10:26:57;;;;;;;;;;;30.50;63.80;;;;;;4989580;28;19929;-70
2023/08/19 10:29:26;;;;;;;;;;;30.60;63.10;;;;;;4989181;28;19933;-71
2023/08/19 10:31:53;;;;;;;;;;;30.80;62.80;;;;;;4988779;28;19926;-70
2023/08/19 10:34:29;;;;;;;;;;;30.80;61.80;;;;;;4989186;28;19930;-69
2023/08/19 10:37:06;;;;;;;;;;;30.90;62.30;;;;;;4989118;28;19925;-70
2023/08/19 10:39:33;;;;;;;;;;;31.00;61.80;;;;;;4988611;28;19926;-71
2023/08/19 10:42:00;;;;;;;;;;;31.00;61.70;;;;;;4988328;28;19926;-70
2023/08/19 10:44:31;;;;;;;;;;;30.90;62.60;;;;;;4988721;28;20309;-72
2023/08/19 10:47:08;;;;;;;;;;;30.90;62.40;;;;;;4988217;28;19925;-71
2023/08/19 10:49:35;;;;;;;;;;;30.80;61.50;;;;;;4989483;28;20018;-69
2023/08/19 10:52:04;;;;;;;;;;;30.90;61.40;;;;;;4988555;28;20068;-70
2023/08/19 10:54:35;;;;;;;;;;;30.90;61.70;;;;;;4988719;28;20519;-70
2023/08/19 10:57:08;;;;;;;;;;;31.10;61.00;;;;;;4989350;28;19961;-70
2023/08/19 10:59:37;;;;;;;;;;;31.20;60.50;;;;;;4987764;28;19964;-67
2023/08/19 11:02:04;;;;;;;;;;;31.40;59.50;;;;;;4988104;28;19976;-70
2023/08/19 11:04:32;;;;;;;;;;;31.60;59.30;;;;;;4989117;28;19933;-70
2023/08/19 11:06:59;;;;;;;;;;;31.50;59.60;;;;;;4988331;28;19948;-70
2023/08/19 11:09:27;;;;;;;;;;;31.60;59.40;;;;;;4988424;28;19926;-71
2023/08/19 11:11:55;;;;;;;;;;;31.60;59.70;;;;;;4987768;28;20083;-69
2023/08/19 11:14:23;;;;;;;;;;;31.70;59.00;;;;;;4988324;28;20044;-70
2023/08/19 11:16:52;;;;;;;;;;;31.70;58.90;;;;;;4986447;28;20451;-68
2023/08/19 11:19:19;;;;;;;;;;;31.60;58.60;;;;;;4988194;28;20027;-70
2023/08/19 11:21:46;;;;;;;;;;;31.60;58.20;;;;;;4989152;28;20016;-70
2023/08/19 11:24:14;;;;;;;;;;;31.70;58.60;;;;;;4988752;28;20373;-70
2023/08/19 11:26:40;;;;;;;;;;;31.80;57.70;;;;;;4987589;28;19929;-69
2023/08/19 11:29:07;;;;;;;;;;;31.80;57.90;;;;;;4988279;28;19965;-70
2023/08/19 11:31:35;;;;;;;;;;;31.80;57.50;;;;;;4989178;28;19989;-69
2023/08/19 11:34:07;;;;;;;;;;;31.70;58.10;;;;;;4988750;28;20270;-71
2023/08/19 11:36:35;;;;;;;;;;;31.70;58.40;;;;;;4986717;28;19947;-70
2023/08/19 11:39:03;;;;;;;;;;;31.60;58.90;;;;;;4988400;28;19936;-68
2023/08/19 11:41:31;;;;;;;;;;;31.60;59.40;;;;;;4988554;28;20405;-69
2023/08/19 11:43:58;;;;;;;;;;;31.60;59.30;;;;;;4987584;28;19930;-69
2023/08/19 11:46:28;;;;;;;;;;;31.50;59.90;;;;;;4988976;28;19968;-69
2023/08/19 11:48:57;;;;;;;;;;;31.50;60.30;;;;;;4988988;28;20029;-69
2023/08/19 11:51:25;;;;;;;;;;;31.50;60.40;;;;;;4986753;28;19933;-70
2023/08/19 11:53:52;;;;;;;;;;;31.40;60.30;;;;;;4986111;28;19925;-69
2023/08/19 11:56:20;;;;;;;;;;;31.40;59.90;;;;;;4988361;28;19934;-69
2023/08/19 11:58:48;;;;;;;;;;;31.40;59.80;;;;;;4988607;28;19996;-70
2023/08/19 12:01:15;;;;;;;;;;;31.30;61.00;;;;;;4988754;28;19934;-70
2023/08/19 12:03:42;;;;;;;;;;;31.20;60.30;;;;;;4987670;28;19929;-70
2023/08/19 12:06:10;;;;;;;;;;;31.20;60.80;;;;;;4989076;28;19934;-70
2023/08/19 12:08:40;;;;;;;;;;;31.20;60.60;;;;;;4986793;28;19936;-71
2023/08/19 12:11:07;;;;;;;;;;;31.20;60.00;;;;;;4987955;28;19944;-70
2023/08/19 12:13:33;;;;;;;;;;;31.30;60.40;;;;;;4988616;28;19926;-70
2023/08/19 12:16:00;;;;;;;;;;;31.30;60.80;;;;;;4987950;28;19983;-71
2023/08/19 12:18:30;;;;;;;;;;;31.30;60.80;;;;;;5004131;28;19930;-68
2023/08/19 12:20:57;;;;;;;;;;;31.30;61.00;;;;;;4986963;28;20462;-69
2023/08/19 12:23:24;;;;;;;;;;;31.20;61.50;;;;;;4987905;28;19925;-71
2023/08/19 12:25:53;;;;;;;;;;;31.30;61.90;;;;;;4987856;28;20377;-70
2023/08/19 12:28:20;;;;;;;;;;;31.30;62.10;;;;;;4992206;28;19933;-69
2023/08/19 12:30:47;;;;;;;;;;;31.20;63.20;;;;;;4991002;28;19926;-70
2023/08/19 12:33:14;;;;;;;;;;;31.20;63.20;;;;;;4991691;28;20078;-70
2023/08/19 12:35:44;;;;;;;;;;;31.20;63.00;;;;;;4971561;28;19948;-70
2023/08/19 12:38:12;;;;;;;;;;;31.10;62.30;;;;;;4983747;28;19930;-70
2023/08/19 12:40:39;;;;;;;;;;;31.10;62.60;;;;;;4991051;28;19934;-69
2023/08/19 12:43:07;;;;;;;;;;;31.10;61.00;;;;;;4991474;28;20008;-70
2023/08/19 12:45:34;;;;;;;;;;;31.00;61.40;;;;;;4990886;28;19925;-68
2023/08/19 12:48:01;;;;;;;;;;;31.00;61.60;;;;;;4990409;28;20296;-69
2023/08/19 12:50:28;;;;;;;;;;;30.90;61.70;;;;;;4991254;28;19976;-70
2023/08/19 12:52:55;;;;;;;;;;;30.90;61.80;;;;;;4990219;28;19972;-71
2023/08/19 12:55:23;;;;;;;;;;;30.90;61.90;;;;;;4979802;28;19929;-71
2023/08/19 12:57:51;;;;;;;;;;;30.90;60.60;;;;;;4990502;28;20389;-70
2023/08/19 13:00:20;;;;;;;;;;;30.90;60.60;;;;;;4990960;28;19934;-72
2023/08/19 13:02:46;;;;;;;;;;;30.90;60.60;;;;;;4990027;28;19926;-71
2023/08/19 13:05:13;;;;;;;;;;;30.90;61.50;;;;;;4990429;28;19930;-70
2023/08/19 13:07:41;;;;;;;;;;;30.90;61.40;;;;;;4990407;28;19929;-70
2023/08/19 13:10:09;;;;;;;;;;;30.90;61.40;;;;;;4990468;28;19977;-71
2023/08/19 13:12:36;;;;;;;;;;;30.80;61.70;;;;;;4990957;28;20033;-71
2023/08/19 13:15:03;;;;;;;;;;;30.70;61.80;;;;;;4990394;28;19938;-70
2023/08/19 13:17:31;;;;;;;;;;;30.70;63.00;;;;;;4990636;28;20278;-71
2023/08/19 13:19:58;;;;;;;;;;;30.60;62.00;;;;;;4990357;28;20013;-70
2023/08/19 13:22:25;;;;;;;;;;;30.50;62.20;;;;;;4990972;28;20332;-70
2023/08/19 13:24:52;;;;;;;;;;;30.40;62.70;;;;;;4989932;28;19926;-70
2023/08/19 13:27:20;;;;;;;;;;;30.30;62.90;;;;;;4991205;28;19992;-71
2023/08/19 13:29:47;;;;;;;;;;;30.20;63.20;;;;;;4989813;28;20374;-71
2023/08/19 13:32:14;;;;;;;;;;;30.10;64.70;;;;;;4989702;28;19936;-71
2023/08/19 13:34:43;;;;;;;;;;;30.00;65.30;;;;;;4989228;28;19977;-71
2023/08/19 13:37:10;;;;;;;;;;;29.90;66.20;;;;;;4986898;28;20481;-70
2023/08/19 13:39:38;;;;;;;;;;;29.90;65.00;;;;;;4990145;28;20408;-70
2023/08/19 13:42:05;;;;;;;;;;;29.80;65.70;;;;;;4989974;28;19940;-71
2023/08/19 13:44:32;;;;;;;;;;;29.80;66.50;;;;;;4990036;28;19932;-71
2023/08/19 13:46:59;;;;;;;;;;;29.70;67.70;;;;;;4990510;28;19936;-70
2023/08/19 13:49:26;;;;;;;;;;;29.70;67.00;;;;;;4990428;28;19961;-72
2023/08/19 13:51:55;;;;;;;;;;;29.60;66.80;;;;;;4990705;28;19925;-70
2023/08/19 13:54:22;;;;;;;;;;;29.60;67.30;;;;;;4989390;28;19925;-72
2023/08/19 13:56:51;;;;;;;;;;;29.60;66.90;;;;;;4990058;28;19932;-71
2023/08/19 13:59:18;;;;;;;;;;;29.60;68.70;;;;;;4989122;28;19965;-71
2023/08/19 14:01:45;;;;;;;;;;;29.50;67.90;;;;;;4990588;28;19926;-71
2023/08/19 14:04:12;;;;;;;;;;;29.50;70.40;;;;;;4989776;28;19941;-72
2023/08/19 14:06:39;;;;;;;;;;;29.50;70.60;;;;;;4989684;28;19934;-71
2023/08/19 14:09:07;;;;;;;;;;;29.50;70.30;;;;;;4989062;28;19930;-69
2023/08/19 14:11:34;;;;;;;;;;;29.40;69.40;;;;;;4989090;28;19933;-71
2023/08/19 14:14:02;;;;;;;;;;;29.40;68.70;;;;;;4988266;28;19976;-71
2023/08/19 14:16:29;;;;;;;;;;;29.40;67.70;;;;;;4990095;28;20574;-71
2023/08/19 14:18:57;;;;;;;;;;;29.30;67.20;;;;;;4989447;28;19956;-70
2023/08/19 14:21:25;;;;;;;;;;;29.30;67.30;;;;;;4989767;28;19952;-70